Time;durP1;ratioP1;P1;durP2;ratioP2;P2;SDS_P1;SDS_P2;PMS_P1;PMS_P2;Temp;Humidity;BMP_temperature;BMP_pressure;BME280_temperature;BME280_humidity;BME280_pressure;Samples;Min_cycle;Max_cycle;Signal;HPM_P1;HPM_P2
2023/01/24 00:02:40;;;;;;;25.37;15.30;;;;;;;;;;5003754;28;21208;-87
2023/01/24 00:05:45;;;;;;;26.67;15.50;;;;;;;;;;4992549;28;20557;-87
2023/01/24 00:08:49;;;;;;;28.83;15.73;;;;;;;;;;4992933;28;20968;-87
2023/01/24 00:11:54;;;;;;;26.60;15.00;;;;;;;;;;5016088;28;20625;-87
2023/01/24 00:14:58;;;;;;;27.17;16.07;;;;;;;;;;4981561;28;20607;-87
2023/01/24 00:18:02;;;;;;;27.83;15.67;;;;;;;;;;4992815;28;20556;-87
2023/01/24 00:21:12;;;;;;;27.17;15.23;;;;;;;;;;4992403;28;20619;-87
2023/01/24 00:24:16;;;;;;;25.50;13.97;;;;;;;;;;5016029;28;20560;-87
2023/01/24 00:27:21;;;;;;;25.63;15.57;;;;;;;;;;4992018;28;21174;-87
2023/01/24 00:30:25;;;;;;;29.30;16.50;;;;;;;;;;4992369;28;20591;-87
2023/01/24 00:33:30;;;;;;;27.63;16.40;;;;;;;;;;4992467;28;21004;-87
2023/01/24 00:36:34;;;;;;;27.43;15.37;;;;;;;;;;5003352;28;20564;-87
2023/01/24 00:39:39;;;;;;;26.70;16.33;;;;;;;;;;5016173;28;21134;-87
2023/01/24 00:42:43;;;;;;;25.67;16.00;;;;;;;;;;4991961;28;20615;-87
2023/01/24 00:45:47;;;;;;;26.10;15.30;;;;;;;;;;4992433;28;20610;-87
2023/01/24 00:48:52;;;;;;;28.70;16.23;;;;;;;;;;4992259;28;20558;-87
2023/01/24 00:51:56;;;;;;;27.87;15.67;;;;;;;;;;5002850;28;20623;-87
2023/01/24 00:55:00;;;;;;;26.87;15.57;;;;;;;;;;5014709;28;20557;-87
2023/01/24 00:58:05;;;;;;;26.97;15.77;;;;;;;;;;4980940;28;20560;-87
2023/01/24 01:01:09;;;;;;;27.27;15.73;;;;;;;;;;4991377;28;20611;-88
2023/01/24 01:04:14;;;;;;;24.80;15.07;;;;;;;;;;5002896;28;21124;-87
2023/01/24 01:07:20;;;;;;;27.20;15.60;;;;;;;;;;5013997;28;20556;-87
2023/01/24 01:10:24;;;;;;;30.73;15.37;;;;;;;;;;5003056;28;20552;-87
2023/01/24 01:13:28;;;;;;;29.57;16.47;;;;;;;;;;4992141;28;20621;-87
2023/01/24 01:16:37;;;;;;;27.43;16.53;;;;;;;;;;4992246;28;21151;-87
2023/01/24 01:19:41;;;;;;;28.43;16.47;;;;;;;;;;4991947;28;20948;-87
2023/01/24 01:22:46;;;;;;;29.90;16.57;;;;;;;;;;4991011;28;20616;-87
2023/01/24 01:25:50;;;;;;;28.27;16.07;;;;;;;;;;4980528;28;20607;-87
2023/01/24 01:28:55;;;;;;;28.50;16.27;;;;;;;;;;4991965;28;20909;-88
2023/01/24 01:31:59;;;;;;;27.33;15.73;;;;;;;;;;4991917;28;20623;-88
2023/01/24 01:35:03;;;;;;;28.00;16.87;;;;;;;;;;4991195;28;20560;-88
2023/01/24 01:38:07;;;;;;;27.30;15.60;;;;;;;;;;4980151;28;20560;-87
2023/01/24 01:41:13;;;;;;;30.80;16.83;;;;;;;;;;4980394;28;20612;-88
2023/01/24 01:44:41;;;;;;;29.33;17.00;;;;;;;;;;4991273;28;20623;-87
2023/01/24 01:47:45;;;;;;;30.80;16.10;;;;;;;;;;5002789;28;20564;-87
2023/01/24 01:51:06;;;;;;;28.20;16.33;;;;;;;;;;4991638;28;20556;-87
2023/01/24 01:54:18;;;;;;;31.73;16.47;;;;;;;;;;4980400;28;21231;-87
2023/01/24 01:57:28;;;;;;;28.47;16.43;;;;;;;;;;4991491;28;20603;-87
2023/01/24 02:00:32;;;;;;;24.87;15.30;;;;;;;;;;5002325;28;20607;-87
2023/01/24 02:03:44;;;;;;;23.17;14.00;;;;;;;;;;4993181;28;20629;-87
2023/01/24 02:07:07;;;;;;;25.10;15.13;;;;;;;;;;4983285;28;20608;-88
2023/01/24 02:10:11;;;;;;;23.63;15.13;;;;;;;;;;5005336;28;20549;-88
2023/01/24 02:13:16;;;;;;;26.93;15.63;;;;;;;;;;4983074;28;20627;-88
2023/01/24 02:16:20;;;;;;;24.63;15.13;;;;;;;;;;4994485;28;20924;-87
2023/01/24 02:19:41;;;;;;;26.77;15.17;;;;;;;;;;4994338;28;20564;-88
2023/01/24 02:23:19;;;;;;;23.10;14.33;;;;;;;;;;5004928;28;20621;-88
2023/01/24 02:26:26;;;;;;;23.67;14.33;;;;;;;;;;4982619;28;20630;-89
2023/01/24 02:29:30;;;;;;;28.57;14.77;;;;;;;;;;4994029;28;20556;-88
2023/01/24 02:32:34;;;;;;;26.53;15.33;;;;;;;;;;4982321;28;20615;-88
2023/01/24 02:35:39;;;;;;;25.40;14.27;;;;;;;;;;4993556;28;21189;-88
2023/01/24 02:38:49;;;;;;;26.83;15.00;;;;;;;;;;4982297;28;21120;-88
2023/01/24 02:42:22;;;;;;;21.93;14.17;;;;;;;;;;4994328;28;21257;-88
2023/01/24 02:45:32;;;;;;;26.07;14.00;;;;;;;;;;4994732;28;20987;-88
2023/01/24 02:48:36;;;;;;;24.33;14.37;;;;;;;;;;4983790;28;20595;-88
2023/01/24 02:55:05;;;;;;;25.47;14.23;;;;;;;;;;5006256;28;21131;-87
2023/01/24 02:58:09;;;;;;;26.07;15.63;;;;;;;;;;4993218;28;20609;-87
2023/01/24 03:01:15;;;;;;;24.40;14.33;;;;;;;;;;5004047;28;20657;-87
2023/01/24 03:04:22;;;;;;;22.90;14.67;;;;;;;;;;4983087;28;20581;-87
2023/01/24 03:07:26;;;;;;;26.17;14.47;;;;;;;;;;4993467;28;20560;-88
2023/01/24 03:10:34;;;;;;;21.07;13.00;;;;;;;;;;4982987;28;20600;-87
2023/01/24 03:40:52;;;;;;;19.73;12.60;;;;;;;;;;4992531;28;20556;-87
2023/01/24 03:43:56;;;;;;;22.27;13.53;;;;;;;;;;4981267;28;20625;-88
2023/01/24 03:47:00;;;;;;;21.87;13.17;;;;;;;;;;4992417;28;20565;-88
2023/01/24 03:53:29;;;;;;;20.20;12.40;;;;;;;;;;4992013;28;20631;-87
2023/01/24 03:56:33;;;;;;;20.73;12.60;;;;;;;;;;4991732;28;20983;-87
2023/01/24 03:59:38;;;;;;;19.47;11.60;;;;;;;;;;4992601;28;20560;-87
2023/01/24 04:02:42;;;;;;;22.50;13.13;;;;;;;;;;4992003;28;20668;-88
2023/01/24 04:05:48;;;;;;;20.63;12.07;;;;;;;;;;4992227;28;20603;-87
2023/01/24 04:08:52;;;;;;;21.10;12.57;;;;;;;;;;5003145;28;20608;-87
2023/01/24 04:11:57;;;;;;;20.57;12.33;;;;;;;;;;5003528;28;21225;-88
2023/01/24 04:15:03;;;;;;;17.73;11.07;;;;;;;;;;4992569;28;20560;-87
2023/01/24 04:18:08;;;;;;;18.20;11.03;;;;;;;;;;4981115;28;20956;-88
2023/01/24 04:21:11;;;;;;;22.90;12.47;;;;;;;;;;4991899;28;20660;-87
2023/01/24 04:24:16;;;;;;;17.17;10.83;;;;;;;;;;4991435;28;20556;-88
2023/01/24 04:27:22;;;;;;;20.87;11.20;;;;;;;;;;4991083;28;20556;-88
2023/01/24 04:30:46;;;;;;;19.67;10.80;;;;;;;;;;5002767;28;20562;-87
2023/01/24 04:34:07;;;;;;;17.03;10.13;;;;;;;;;;4982366;28;20564;-88
2023/01/24 04:37:14;;;;;;;17.77;10.87;;;;;;;;;;4992096;28;20921;-88
2023/01/24 04:40:19;;;;;;;15.17;10.53;;;;;;;;;;4991857;28;20611;-87
2023/01/24 04:43:23;;;;;;;17.07;10.43;;;;;;;;;;4991233;28;21221;-89
2023/01/24 04:46:28;;;;;;;16.03;10.27;;;;;;;;;;4980363;28;20558;-88
2023/01/24 04:49:34;;;;;;;19.10;11.77;;;;;;;;;;4991731;28;20555;-88
2023/01/24 04:52:39;;;;;;;18.80;11.43;;;;;;;;;;5002161;28;20622;-87
2023/01/24 04:55:46;;;;;;;16.77;10.77;;;;;;;;;;4991253;28;20564;-87
2023/01/24 04:58:51;;;;;;;15.70;10.17;;;;;;;;;;4981325;28;20555;-88
2023/01/24 05:01:55;;;;;;;17.83;10.47;;;;;;;;;;4992204;28;20652;-88
2023/01/24 05:05:35;;;;;;;16.17;9.77;;;;;;;;;;4997159;28;20985;-88
2023/01/24 05:08:39;;;;;;;16.00;9.83;;;;;;;;;;4981428;28;20913;-87
2023/01/24 05:11:44;;;;;;;14.80;9.53;;;;;;;;;;4992606;28;20609;-87
2023/01/24 05:14:48;;;;;;;16.03;9.60;;;;;;;;;;4991917;28;20556;-87
2023/01/24 05:17:52;;;;;;;15.37;9.57;;;;;;;;;;4991800;28;20549;-87
2023/01/24 05:21:15;;;;;;;18.43;9.77;;;;;;;;;;4992029;28;20561;-87
2023/01/24 05:24:20;;;;;;;14.83;9.40;;;;;;;;;;4992414;28;20549;-87
2023/01/24 05:27:24;;;;;;;15.30;9.47;;;;;;;;;;4991835;28;20561;-87
2023/01/24 05:30:34;;;;;;;16.70;9.90;;;;;;;;;;4994263;28;21087;-87
2023/01/24 05:33:43;;;;;;;15.23;9.57;;;;;;;;;;5003034;28;20596;-88
2023/01/24 05:36:47;;;;;;;14.80;9.07;;;;;;;;;;4991878;28;20552;-87
2023/01/24 05:39:51;;;;;;;15.80;9.17;;;;;;;;;;4984897;28;21091;-87
2023/01/24 05:42:56;;;;;;;15.83;9.00;;;;;;;;;;4995860;28;20656;-87
2023/01/24 05:46:07;;;;;;;13.43;8.87;;;;;;;;;;4995391;28;20556;-88
2023/01/24 05:49:16;;;;;;;15.93;9.57;;;;;;;;;;4985381;28;21107;-87
2023/01/24 05:52:22;;;;;;;15.27;9.53;;;;;;;;;;4995717;28;20620;-87
2023/01/24 05:55:29;;;;;;;14.07;8.83;;;;;;;;;;4995381;28;20940;-87
2023/01/24 05:58:36;;;;;;;14.43;9.03;;;;;;;;;;4995402;28;20556;-87
2023/01/24 06:01:47;;;;;;;13.37;8.87;;;;;;;;;;4995067;28;20651;-87
2023/01/24 06:04:51;;;;;;;13.83;9.13;;;;;;;;;;4984598;28;20549;-87
2023/01/24 06:07:55;;;;;;;12.80;8.53;;;;;;;;;;4996630;28;20545;-87
2023/01/24 06:11:12;;;;;;;15.07;8.57;;;;;;;;;;4986603;28;20557;-87
2023/01/24 06:14:17;;;;;;;12.53;8.40;;;;;;;;;;4995748;28;20890;-87
2023/01/24 06:17:22;;;;;;;14.80;8.43;;;;;;;;;;4999668;28;20552;-87
2023/01/24 06:20:27;;;;;;;14.00;8.93;;;;;;;;;;5001410;28;20556;-88
2023/01/24 06:23:32;;;;;;;13.63;8.60;;;;;;;;;;4992127;28;20655;-88
2023/01/24 06:26:40;;;;;;;14.30;8.30;;;;;;;;;;5003644;28;20597;-88
2023/01/24 06:29:45;;;;;;;11.27;7.50;;;;;;;;;;5002959;28;20691;-87
2023/01/24 06:33:03;;;;;;;14.03;8.33;;;;;;;;;;4991523;28;20612;-87
2023/01/24 06:36:17;;;;;;;13.80;8.63;;;;;;;;;;5014505;28;20582;-88
2023/01/24 06:39:22;;;;;;;12.33;8.17;;;;;;;;;;5003714;28;20564;-87
2023/01/24 06:42:27;;;;;;;14.70;8.97;;;;;;;;;;5003592;28;20648;-87
2023/01/24 06:45:32;;;;;;;12.57;8.20;;;;;;;;;;5002105;28;20604;-88
2023/01/24 06:48:36;;;;;;;12.50;7.77;;;;;;;;;;5002235;28;20545;-88
2023/01/24 06:51:40;;;;;;;11.87;8.30;;;;;;;;;;5002446;28;20623;-87
2023/01/24 06:54:46;;;;;;;14.50;8.63;;;;;;;;;;5002659;28;20706;-87
2023/01/24 06:57:57;;;;;;;12.10;8.23;;;;;;;;;;5024548;28;20557;-87
2023/01/24 07:01:02;;;;;;;13.83;8.37;;;;;;;;;;5000795;28;21163;-86
2023/01/24 07:04:07;;;;;;;15.03;8.33;;;;;;;;;;5011805;28;21095;-87
2023/01/24 07:07:11;;;;;;;15.63;9.20;;;;;;;;;;4989201;28;20548;-87
2023/01/24 07:10:16;;;;;;;14.70;9.03;;;;;;;;;;4999926;28;20548;-87
2023/01/24 07:13:20;;;;;;;14.20;8.97;;;;;;;;;;4999660;28;20631;-87
2023/01/24 07:16:24;;;;;;;12.70;7.97;;;;;;;;;;4999250;28;20604;-87
2023/01/24 07:19:29;;;;;;;12.43;8.17;;;;;;;;;;5010295;28;21095;-86
2023/01/24 07:22:37;;;;;;;12.60;8.23;;;;;;;;;;5020356;28;20660;-86
2023/01/24 07:25:42;;;;;;;14.47;8.17;;;;;;;;;;4997799;28;20552;-87
2023/01/24 07:28:47;;;;;;;14.60;8.37;;;;;;;;;;4986767;28;20557;-87
2023/01/24 07:31:52;;;;;;;13.83;8.67;;;;;;;;;;4997317;28;20624;-86
2023/01/24 07:34:56;;;;;;;12.77;8.00;;;;;;;;;;5008098;28;21120;-87
2023/01/24 07:38:00;;;;;;;12.77;7.87;;;;;;;;;;4996668;28;20549;-87
2023/01/24 07:41:09;;;;;;;12.80;7.80;;;;;;;;;;4996205;28;20552;-87
2023/01/24 07:44:13;;;;;;;12.83;8.33;;;;;;;;;;4985324;28;20652;-86
2023/01/24 07:47:17;;;;;;;13.07;8.10;;;;;;;;;;5007129;28;20549;-87
2023/01/24 07:50:23;;;;;;;12.97;8.03;;;;;;;;;;4995972;28;20544;-87
2023/01/24 07:53:27;;;;;;;13.40;7.87;;;;;;;;;;5006062;28;20619;-87
2023/01/24 07:56:31;;;;;;;11.87;8.10;;;;;;;;;;4995435;28;20548;-87
2023/01/24 07:59:36;;;;;;;13.73;8.30;;;;;;;;;;4995127;28;20548;-86
2023/01/24 08:02:41;;;;;;;13.33;8.00;;;;;;;;;;5016848;28;20660;-87
2023/01/24 08:05:45;;;;;;;13.93;8.13;;;;;;;;;;4993825;28;20608;-87
2023/01/24 08:08:49;;;;;;;12.30;7.30;;;;;;;;;;4994219;28;20557;-87
2023/01/24 08:11:53;;;;;;;12.47;8.50;;;;;;;;;;5005254;28;20624;-87
2023/01/24 08:14:58;;;;;;;12.97;8.60;;;;;;;;;;4994049;28;20549;-87
2023/01/24 08:18:03;;;;;;;14.13;7.80;;;;;;;;;;4993999;28;20549;-86
2023/01/24 08:21:07;;;;;;;11.70;7.87;;;;;;;;;;4993727;28;20552;-87
2023/01/24 08:24:11;;;;;;;15.50;8.37;;;;;;;;;;4993681;28;20612;-87
2023/01/24 08:27:16;;;;;;;12.53;8.27;;;;;;;;;;4993349;28;20549;-87
2023/01/24 08:30:20;;;;;;;13.47;8.17;;;;;;;;;;4993066;28;20552;-87
2023/01/24 08:33:25;;;;;;;15.07;8.80;;;;;;;;;;5004631;28;21171;-86
2023/01/24 08:36:29;;;;;;;14.03;7.87;;;;;;;;;;4993191;28;21092;-87
2023/01/24 08:39:33;;;;;;;12.80;8.10;;;;;;;;;;4993210;28;20545;-87
2023/01/24 08:42:37;;;;;;;12.70;7.97;;;;;;;;;;5003926;28;20647;-87
2023/01/24 08:45:41;;;;;;;12.93;7.90;;;;;;;;;;4992724;28;20615;-86
2023/01/24 08:48:46;;;;;;;12.77;8.37;;;;;;;;;;5004563;28;21154;-87
2023/01/24 08:51:58;;;;;;;11.40;8.00;;;;;;;;;;4992431;28;20619;-87
2023/01/24 08:55:02;;;;;;;11.03;7.50;;;;;;;;;;5015926;28;20549;-87
2023/01/24 08:58:07;;;;;;;11.33;7.20;;;;;;;;;;4992757;28;20560;-87
2023/01/24 09:01:11;;;;;;;10.40;6.93;;;;;;;;;;4981561;28;20553;-87
2023/01/24 09:04:15;;;;;;;12.30;7.27;;;;;;;;;;4981721;28;20601;-87
2023/01/24 09:07:19;;;;;;;11.43;7.83;;;;;;;;;;4993128;28;20556;-87
2023/01/24 09:10:24;;;;;;;11.50;7.23;;;;;;;;;;4992791;28;20553;-87
2023/01/24 09:13:28;;;;;;;12.03;7.80;;;;;;;;;;4992343;28;20624;-87
2023/01/24 09:16:33;;;;;;;11.03;7.03;;;;;;;;;;4993142;28;20560;-87
2023/01/24 09:19:36;;;;;;;12.53;7.47;;;;;;;;;;4993234;28;20556;-87
2023/01/24 09:22:41;;;;;;;9.87;6.90;;;;;;;;;;4992621;28;20615;-87
2023/01/24 09:25:50;;;;;;;12.00;7.60;;;;;;;;;;4992334;28;20553;-87
2023/01/24 09:28:55;;;;;;;10.37;7.33;;;;;;;;;;4992398;28;20549;-88
2023/01/24 09:31:59;;;;;;;9.97;7.03;;;;;;;;;;4992044;28;21206;-87
2023/01/24 09:35:03;;;;;;;13.37;7.57;;;;;;;;;;4992774;28;20552;-88
2023/01/24 09:38:08;;;;;;;12.50;8.03;;;;;;;;;;4992768;28;20545;-88
2023/01/24 09:41:18;;;;;;;12.63;8.30;;;;;;;;;;5003850;28;21099;-88
2023/01/24 09:44:38;;;;;;;13.10;8.37;;;;;;;;;;4991905;28;20644;-88
2023/01/24 09:47:45;;;;;;;10.23;7.20;;;;;;;;;;5003381;28;20549;-88
2023/01/24 09:50:57;;;;;;;10.57;7.50;;;;;;;;;;4992044;28;20553;-88
2023/01/24 09:54:03;;;;;;;10.20;6.87;;;;;;;;;;5003565;28;20541;-88
2023/01/24 09:57:26;;;;;;;9.63;6.47;;;;;;;;;;4991870;28;20577;-88
2023/01/24 10:00:34;;;;;;;10.00;6.63;;;;;;;;;;4991841;28;20553;-88
2023/01/24 10:03:39;;;;;;;11.87;7.70;;;;;;;;;;5003519;28;20653;-87
2023/01/24 10:07:15;;;;;;;12.07;6.93;;;;;;;;;;5004081;28;20988;-88
2023/01/24 10:10:39;;;;;;;10.30;7.07;;;;;;;;;;4992158;28;20553;-87
2023/01/24 10:14:08;;;;;;;11.40;7.27;;;;;;;;;;4991975;28;20882;-87
2023/01/24 10:17:44;;;;;;;9.33;6.70;;;;;;;;;;4992016;28;20177;-87
2023/01/24 10:21:16;;;;;;;11.00;7.10;;;;;;;;;;4981242;28;20545;-87
2023/01/24 10:24:26;;;;;;;8.90;6.10;;;;;;;;;;4980797;28;20209;-87
2023/01/24 10:27:35;;;;;;;10.33;7.13;;;;;;;;;;4995723;28;20174;-87
2023/01/24 10:31:18;;;;;;;10.10;6.53;;;;;;;;;;4984512;28;20182;-87
2023/01/24 10:34:53;;;;;;;14.03;7.47;;;;;;;;;;4994427;28;20182;-87
2023/01/24 10:38:00;;;;;;;11.90;7.77;;;;;;;;;;4994698;28;20182;-87
2023/01/24 10:41:33;;;;;;;10.43;6.73;;;;;;;;;;4994948;28;20193;-87
2023/01/24 10:44:39;;;;;;;12.10;7.57;;;;;;;;;;4983560;28;20221;-87
2023/01/24 10:47:56;;;;;;;10.13;7.73;;;;;;;;;;4994830;28;20178;-87
2023/01/24 10:51:18;;;;;;;10.70;7.57;;;;;;;;;;4994723;28;20178;-87
2023/01/24 10:54:22;;;;;;;11.60;8.07;;;;;;;;;;4994330;28;20174;-86
2023/01/24 10:57:39;;;;;;;11.03;7.73;;;;;;;;;;4983381;28;20177;-87
2023/01/24 11:00:45;;;;;;;12.17;8.07;;;;;;;;;;4994195;28;20637;-87
2023/01/24 11:03:51;;;;;;;11.00;7.70;;;;;;;;;;5005615;28;20209;-87
2023/01/24 11:06:55;;;;;;;9.97;6.70;;;;;;;;;;4994009;28;20193;-87
2023/01/24 11:10:01;;;;;;;10.07;7.30;;;;;;;;;;4982978;28;20201;-87
2023/01/24 11:13:37;;;;;;;11.87;7.30;;;;;;;;;;5005250;28;20217;-87
2023/01/24 11:16:43;;;;;;;11.83;7.67;;;;;;;;;;5005421;28;20177;-86
2023/01/24 11:19:47;;;;;;;11.27;8.10;;;;;;;;;;4994215;28;20182;-87
2023/01/24 11:23:04;;;;;;;12.27;7.63;;;;;;;;;;4994371;28;20213;-87
2023/01/24 11:26:30;;;;;;;15.10;8.87;;;;;;;;;;5004914;28;20189;-87
2023/01/24 11:29:34;;;;;;;11.50;7.13;;;;;;;;;;4982531;28;20178;-87
2023/01/24 11:33:01;;;;;;;12.27;7.53;;;;;;;;;;4993981;28;20217;-87
2023/01/24 11:36:25;;;;;;;11.23;7.80;;;;;;;;;;4992915;28;20523;-87
2023/01/24 11:39:55;;;;;;;9.50;6.77;;;;;;;;;;4988356;28;20178;-88
2023/01/24 11:43:23;;;;;;;11.77;7.17;;;;;;;;;;4982161;28;20213;-87
2023/01/24 11:46:36;;;;;;;10.87;7.03;;;;;;;;;;5004335;28;20186;-87
2023/01/24 11:49:58;;;;;;;10.47;7.07;;;;;;;;;;5004520;28;20181;-88
2023/01/24 11:53:29;;;;;;;11.10;6.80;;;;;;;;;;4993265;28;20557;-87
2023/01/24 11:56:56;;;;;;;13.97;7.90;;;;;;;;;;4992795;28;20629;-87
2023/01/24 12:00:19;;;;;;;10.70;6.80;;;;;;;;;;4981765;28;20178;-87
2023/01/24 12:03:37;;;;;;;10.00;6.90;;;;;;;;;;4981868;28;20209;-87
2023/01/24 12:07:04;;;;;;;11.33;7.93;;;;;;;;;;4993094;28;20642;-87
2023/01/24 12:10:19;;;;;;;10.53;6.83;;;;;;;;;;4993070;28;20328;-87
2023/01/24 12:13:56;;;;;;;10.00;7.23;;;;;;;;;;4992740;28;20562;-87
2023/01/24 12:17:18;;;;;;;9.97;7.03;;;;;;;;;;4992952;28;20181;-87
2023/01/24 12:20:51;;;;;;;10.83;7.47;;;;;;;;;;4982070;28;20178;-86
2023/01/24 12:24:11;;;;;;;10.03;7.00;;;;;;;;;;4992960;28;20201;-87
2023/01/24 12:27:19;;;;;;;10.07;7.70;;;;;;;;;;5004073;28;20173;-87
2023/01/24 12:30:54;;;;;;;12.60;7.73;;;;;;;;;;4993433;28;20185;-87
2023/01/24 12:34:04;;;;;;;11.00;7.37;;;;;;;;;;4992485;28;20178;-86
2023/01/24 12:37:25;;;;;;;12.83;7.43;;;;;;;;;;5003721;28;20197;-87
2023/01/24 12:40:51;;;;;;;13.93;8.50;;;;;;;;;;4992480;28;20185;-86
2023/01/24 12:44:24;;;;;;;11.53;7.90;;;;;;;;;;4992495;28;20687;-87
2023/01/24 12:47:40;;;;;;;13.20;7.80;;;;;;;;;;4980723;28;20181;-87
2023/01/24 12:51:05;;;;;;;12.10;7.77;;;;;;;;;;5002920;28;20174;-88
2023/01/24 12:54:21;;;;;;;14.20;8.40;;;;;;;;;;4991210;28;20182;-86
2023/01/24 12:57:44;;;;;;;13.63;8.77;;;;;;;;;;4980213;28;20245;-86
2023/01/24 13:00:58;;;;;;;15.00;8.63;;;;;;;;;;5002659;28;20522;-88
2023/01/24 13:04:30;;;;;;;12.80;8.23;;;;;;;;;;4990947;28;20205;-86
2023/01/24 13:07:43;;;;;;;13.60;8.20;;;;;;;;;;4991613;28;20181;-87
2023/01/24 13:11:07;;;;;;;13.63;8.40;;;;;;;;;;4991552;28;20182;-87
2023/01/24 13:14:21;;;;;;;13.27;7.87;;;;;;;;;;4991255;28;20177;-87
2023/01/24 13:17:37;;;;;;;13.40;7.70;;;;;;;;;;5003020;28;20182;-87
2023/01/24 13:21:03;;;;;;;13.73;8.17;;;;;;;;;;4991213;28;20182;-87
2023/01/24 13:24:16;;;;;;;11.77;8.13;;;;;;;;;;4991694;28;20202;-87
2023/01/24 13:27:36;;;;;;;13.23;8.10;;;;;;;;;;4992978;28;20178;-86
2023/01/24 13:31:18;;;;;;;12.83;8.10;;;;;;;;;;5003372;28;20178;-87
2023/01/24 13:34:29;;;;;;;12.80;8.00;;;;;;;;;;4971333;28;20194;-87
2023/01/24 13:37:35;;;;;;;13.67;9.20;;;;;;;;;;4992184;28;20629;-87
2023/01/24 13:40:40;;;;;;;18.97;10.40;;;;;;;;;;4991727;28;20676;-87
2023/01/24 13:43:50;;;;;;;11.67;8.57;;;;;;;;;;5002520;28;20208;-87
2023/01/24 13:47:03;;;;;;;11.50;7.53;;;;;;;;;;4980603;28;20177;-87
2023/01/24 13:50:14;;;;;;;12.30;7.40;;;;;;;;;;5005293;28;20174;-87
2023/01/24 13:53:56;;;;;;;10.93;7.53;;;;;;;;;;5003867;28;20561;-87
2023/01/24 13:57:13;;;;;;;10.37;7.73;;;;;;;;;;4982478;28;20178;-87
2023/01/24 14:00:19;;;;;;;10.63;8.03;;;;;;;;;;4984416;28;20392;-88
2023/01/24 14:03:30;;;;;;;14.33;8.40;;;;;;;;;;5006625;28;20217;-86
2023/01/24 14:06:43;;;;;;;11.87;8.27;;;;;;;;;;4996726;28;20189;-87
2023/01/24 14:09:57;;;;;;;13.50;8.50;;;;;;;;;;4986298;28;20561;-87
2023/01/24 14:13:02;;;;;;;11.97;8.13;;;;;;;;;;4996429;28;20218;-87
2023/01/24 14:16:25;;;;;;;11.90;8.03;;;;;;;;;;4996939;28;20173;-87
2023/01/24 14:19:39;;;;;;;12.23;7.73;;;;;;;;;;4986072;28;20177;-87
2023/01/24 14:22:45;;;;;;;12.10;7.40;;;;;;;;;;5007151;28;20217;-87
2023/01/24 14:25:53;;;;;;;11.47;8.27;;;;;;;;;;4995748;28;20689;-87
2023/01/24 14:29:02;;;;;;;14.50;8.43;;;;;;;;;;5006696;28;20197;-87
2023/01/24 14:32:24;;;;;;;11.83;8.33;;;;;;;;;;4984124;28;20561;-87
2023/01/24 14:35:33;;;;;;;13.07;8.80;;;;;;;;;;5006541;28;20178;-87
2023/01/24 14:38:37;;;;;;;11.43;8.07;;;;;;;;;;5006346;28;20181;-87
2023/01/24 14:41:42;;;;;;;11.67;8.33;;;;;;;;;;4995507;28;20213;-86
2023/01/24 14:44:55;;;;;;;12.47;8.07;;;;;;;;;;4995438;28;20221;-87
2023/01/24 14:48:01;;;;;;;12.97;8.60;;;;;;;;;;4995062;28;20182;-87
2023/01/24 14:51:13;;;;;;;12.23;7.93;;;;;;;;;;4994238;28;20197;-87
2023/01/24 14:54:23;;;;;;;13.40;8.80;;;;;;;;;;4983681;28;20197;-87
2023/01/24 14:57:29;;;;;;;12.97;7.73;;;;;;;;;;4994628;28;20689;-87
2023/01/24 15:00:34;;;;;;;10.07;7.17;;;;;;;;;;5006100;28;20182;-88
2023/01/24 15:03:38;;;;;;;15.03;8.07;;;;;;;;;;5017301;28;20217;-87
2023/01/24 15:06:42;;;;;;;11.70;7.73;;;;;;;;;;4994490;28;20177;-87
2023/01/24 15:09:46;;;;;;;12.90;8.07;;;;;;;;;;4993329;28;20190;-88
2023/01/24 15:12:53;;;;;;;12.23;8.10;;;;;;;;;;4994091;28;20217;-87
2023/01/24 15:15:57;;;;;;;11.30;7.83;;;;;;;;;;4993569;28;20174;-87
2023/01/24 15:19:21;;;;;;;12.67;8.20;;;;;;;;;;4994786;28;20173;-88
2023/01/24 15:22:30;;;;;;;15.90;7.93;;;;;;;;;;4993843;28;20210;-87
2023/01/24 15:25:35;;;;;;;12.50;8.50;;;;;;;;;;5016068;28;20221;-88
2023/01/24 15:28:41;;;;;;;12.43;8.07;;;;;;;;;;4982834;28;20193;-87
2023/01/24 15:31:50;;;;;;;14.30;9.07;;;;;;;;;;5005483;28;20217;-87
2023/01/24 15:35:12;;;;;;;15.63;9.10;;;;;;;;;;4993586;28;20625;-87
2023/01/24 15:38:28;;;;;;;14.00;8.67;;;;;;;;;;4982429;28;20182;-87
2023/01/24 15:45:00;;;;;;;14.50;9.53;;;;;;;;;;5004104;28;20221;-88
2023/01/24 15:48:19;;;;;;;14.33;9.60;;;;;;;;;;4992945;28;20181;-87
2023/01/24 15:51:42;;;;;;;13.93;9.43;;;;;;;;;;4993047;28;20174;-88
2023/01/24 15:54:58;;;;;;;13.40;9.23;;;;;;;;;;4992861;28;20181;-87
2023/01/24 15:58:02;;;;;;;13.27;9.50;;;;;;;;;;4993192;28;20178;-87
2023/01/24 16:01:07;;;;;;;16.93;10.50;;;;;;;;;;4992801;28;20217;-87
2023/01/24 16:04:13;;;;;;;13.97;8.67;;;;;;;;;;4993021;28;20174;-87
2023/01/24 16:07:18;;;;;;;15.33;10.43;;;;;;;;;;5003965;28;20182;-88
2023/01/24 16:10:22;;;;;;;15.50;10.40;;;;;;;;;;5004040;28;20193;-87
2023/01/24 16:13:35;;;;;;;16.40;10.30;;;;;;;;;;4993056;28;20650;-88
2023/01/24 16:16:39;;;;;;;14.93;10.13;;;;;;;;;;4992438;28;20920;-87
2023/01/24 16:19:44;;;;;;;15.63;10.53;;;;;;;;;;4991907;28;20200;-88
2023/01/24 16:22:48;;;;;;;14.63;10.50;;;;;;;;;;4992219;28;20713;-88
2023/01/24 16:25:55;;;;;;;15.50;10.40;;;;;;;;;;4981403;28;20218;-87
2023/01/24 16:28:59;;;;;;;15.27;9.63;;;;;;;;;;4992170;28;20184;-87
2023/01/24 16:32:17;;;;;;;16.77;11.50;;;;;;;;;;5014628;28;20212;-88
2023/01/24 16:35:22;;;;;;;17.50;11.30;;;;;;;;;;4981025;28;20201;-87
2023/01/24 16:38:26;;;;;;;15.00;10.93;;;;;;;;;;4991769;28;20185;-88
2023/01/24 16:41:32;;;;;;;38.13;18.63;;;;;;;;;;5003086;28;20204;-87
2023/01/24 16:44:36;;;;;;;25.00;15.20;;;;;;;;;;5003570;28;20213;-87
2023/01/24 16:47:41;;;;;;;19.43;12.07;;;;;;;;;;5004167;28;20556;-87
2023/01/24 16:50:45;;;;;;;18.97;12.03;;;;;;;;;;5016242;28;20559;-87
2023/01/24 16:53:55;;;;;;;19.03;12.20;;;;;;;;;;5015107;28;20602;-87
2023/01/24 16:56:59;;;;;;;22.30;13.87;;;;;;;;;;4992178;28;20184;-88
2023/01/24 17:00:11;;;;;;;18.13;11.57;;;;;;;;;;5003332;28;20559;-87
2023/01/24 17:03:16;;;;;;;18.70;10.37;;;;;;;;;;4992311;28;20224;-88
2023/01/24 17:06:20;;;;;;;16.47;11.57;;;;;;;;;;4991946;28;20703;-87
2023/01/24 17:09:24;;;;;;;18.20;11.60;;;;;;;;;;4991981;28;20194;-87
2023/01/24 17:12:29;;;;;;;18.67;12.97;;;;;;;;;;4991598;28;20220;-87
2023/01/24 17:15:35;;;;;;;19.60;11.80;;;;;;;;;;4991999;28;20654;-87
2023/01/24 17:18:40;;;;;;;21.90;11.77;;;;;;;;;;4980960;28;20560;-88
2023/01/24 17:21:44;;;;;;;20.80;13.10;;;;;;;;;;4991570;28;21205;-88
2023/01/24 17:24:48;;;;;;;18.20;12.17;;;;;;;;;;5002563;28;20560;-88
2023/01/24 17:27:52;;;;;;;18.03;11.37;;;;;;;;;;4991924;28;20184;-88
2023/01/24 17:30:56;;;;;;;20.10;12.47;;;;;;;;;;4983434;28;20559;-88
2023/01/24 17:34:00;;;;;;;19.80;12.10;;;;;;;;;;4992947;28;20933;-88
2023/01/24 17:37:04;;;;;;;21.13;12.63;;;;;;;;;;4995470;28;20599;-88
2023/01/24 17:40:10;;;;;;;21.30;13.07;;;;;;;;;;4995515;28;20186;-88
2023/01/24 17:43:13;;;;;;;21.97;12.83;;;;;;;;;;5006044;28;20243;-88
2023/01/24 17:46:18;;;;;;;35.90;20.73;;;;;;;;;;4995975;28;20696;-88
2023/01/24 17:49:23;;;;;;;19.93;12.50;;;;;;;;;;4995617;28;20559;-87
2023/01/24 17:52:27;;;;;;;21.27;13.30;;;;;;;;;;4995368;28;20631;-88
2023/01/24 17:55:31;;;;;;;18.00;11.83;;;;;;;;;;4995803;28;20551;-87
2023/01/24 17:58:35;;;;;;;22.37;12.33;;;;;;;;;;4997348;28;20565;-87
2023/01/24 18:01:39;;;;;;;18.70;12.07;;;;;;;;;;5007465;28;20626;-88
2023/01/24 18:04:44;;;;;;;23.37;13.13;;;;;;;;;;4995714;28;20603;-88
2023/01/24 18:07:48;;;;;;;19.40;12.37;;;;;;;;;;4995875;28;20200;-87
2023/01/24 18:10:52;;;;;;;19.47;12.27;;;;;;;;;;4995032;28;20206;-88
2023/01/24 18:13:56;;;;;;;19.40;12.70;;;;;;;;;;4985500;28;20603;-88
2023/01/24 18:17:00;;;;;;;19.40;12.77;;;;;;;;;;5006864;28;20556;-87
2023/01/24 18:20:05;;;;;;;28.07;17.47;;;;;;;;;;4994532;28;20556;-87
2023/01/24 18:23:09;;;;;;;31.57;18.10;;;;;;;;;;4983240;28;20627;-87
2023/01/24 18:26:14;;;;;;;22.70;13.63;;;;;;;;;;4994092;28;20608;-87
2023/01/24 18:29:18;;;;;;;20.80;12.90;;;;;;;;;;5004924;28;20559;-87
2023/01/24 18:32:22;;;;;;;21.50;13.20;;;;;;;;;;4993542;28;20630;-87
2023/01/24 18:35:26;;;;;;;24.60;14.07;;;;;;;;;;5005135;28;20548;-87
2023/01/24 18:38:31;;;;;;;22.13;13.97;;;;;;;;;;4993806;28;21122;-87
2023/01/24 18:41:36;;;;;;;18.60;12.37;;;;;;;;;;4993541;28;20558;-87
2023/01/24 18:44:40;;;;;;;17.50;12.17;;;;;;;;;;4993340;28;20975;-88
2023/01/24 18:47:44;;;;;;;20.90;13.33;;;;;;;;;;5006028;28;20920;-87
2023/01/24 18:50:48;;;;;;;21.77;12.57;;;;;;;;;;4994964;28;21118;-87
2023/01/24 18:53:53;;;;;;;20.87;12.97;;;;;;;;;;4994861;28;20556;-87
2023/01/24 18:56:57;;;;;;;23.20;13.97;;;;;;;;;;5006003;28;20557;-87
2023/01/24 19:00:01;;;;;;;22.47;14.17;;;;;;;;;;5005858;28;20561;-87
2023/01/24 19:03:05;;;;;;;24.37;14.27;;;;;;;;;;4983381;28;20631;-87
2023/01/24 19:06:10;;;;;;;20.33;12.90;;;;;;;;;;5006063;28;20615;-87
2023/01/24 19:09:15;;;;;;;21.00;13.63;;;;;;;;;;4994592;28;20560;-87